sensor_id;sensor_type;location;lat;lon;timestamp;pressure;altitude;pressure_sealevel;temperature;humidity
75681;BME280;64294;49.176;16.626;2023-02-28T00:01:42;100364.41;;;-3.75;82.05
75681;BME280;64294;49.176;16.626;2023-02-28T00:04:07;100363.50;;;-3.65;81.14
75681;BME280;64294;49.176;16.626;2023-02-28T00:06:34;100365.25;;;-3.78;81.25
75681;BME280;64294;49.176;16.626;2023-02-28T00:08:59;100362.13;;;-3.80;81.72
75681;BME280;64294;49.176;16.626;2023-02-28T00:11:25;100357.78;;;-3.78;81.49
75681;BME280;64294;49.176;16.626;2023-02-28T00:13:50;100362.56;;;-3.82;80.48
75681;BME280;64294;49.176;16.626;2023-02-28T00:16:18;100362.97;;;-3.83;81.72
75681;BME280;64294;49.176;16.626;2023-02-28T00:18:46;100361.00;;;-3.83;81.02
75681;BME280;64294;49.176;16.626;2023-02-28T00:21:12;100355.41;;;-3.76;80.62
75681;BME280;64294;49.176;16.626;2023-02-28T00:23:38;100356.94;;;-3.71;79.56
75681;BME280;64294;49.176;16.626;2023-02-28T00:26:03;100350.38;;;-3.81;80.65
75681;BME280;64294;49.176;16.626;2023-02-28T00:28:29;100348.88;;;-3.85;80.12
75681;BME280;64294;49.176;16.626;2023-02-28T00:30:54;100348.16;;;-3.89;80.88
75681;BME280;64294;49.176;16.626;2023-02-28T00:33:23;100349.13;;;-3.76;80.32
75681;BME280;64294;49.176;16.626;2023-02-28T00:35:48;100356.41;;;-3.89;80.24
75681;BME280;64294;49.176;16.626;2023-02-28T00:38:15;100351.16;;;-3.80;80.25
75681;BME280;64294;49.176;16.626;2023-02-28T00:40:40;100353.53;;;-3.82;80.51
75681;BME280;64294;49.176;16.626;2023-02-28T00:43:06;100354.03;;;-3.91;80.55
75681;BME280;64294;49.176;16.626;2023-02-28T00:45:32;100345.50;;;-3.97;80.67
75681;BME280;64294;49.176;16.626;2023-02-28T00:48:00;100355.03;;;-4.05;80.75
75681;BME280;64294;49.176;16.626;2023-02-28T00:50:25;100342.13;;;-4.08;81.46
75681;BME280;64294;49.176;16.626;2023-02-28T00:52:51;100350.25;;;-4.01;81.76
75681;BME280;64294;49.176;16.626;2023-02-28T00:55:16;100348.94;;;-3.89;80.74
75681;BME280;64294;49.176;16.626;2023-02-28T00:57:43;100348.19;;;-3.93;81.23
75681;BME280;64294;49.176;16.626;2023-02-28T01:00:10;100350.44;;;-3.84;80.18
75681;BME280;64294;49.176;16.626;2023-02-28T01:02:36;100341.84;;;-3.86;79.80
75681;BME280;64294;49.176;16.626;2023-02-28T01:05:01;100342.28;;;-3.91;80.88
75681;BME280;64294;49.176;16.626;2023-02-28T01:07:26;100342.28;;;-3.91;81.20
75681;BME280;64294;49.176;16.626;2023-02-28T01:09:52;100345.19;;;-4.02;81.90
75681;BME280;64294;49.176;16.626;2023-02-28T01:12:17;100352.66;;;-4.03;81.13
75681;BME280;64294;49.176;16.626;2023-02-28T01:14:43;100344.41;;;-4.03;81.52
75681;BME280;64294;49.176;16.626;2023-02-28T01:17:09;100342.50;;;-4.06;81.52
75681;BME280;64294;49.176;16.626;2023-02-28T01:19:35;100334.69;;;-4.07;81.50
75681;BME280;64294;49.176;16.626;2023-02-28T01:22:02;100345.44;;;-3.93;81.41
75681;BME280;64294;49.176;16.626;2023-02-28T01:24:28;100350.72;;;-4.06;82.10
75681;BME280;64294;49.176;16.626;2023-02-28T01:26:53;100352.34;;;-4.08;82.59
75681;BME280;64294;49.176;16.626;2023-02-28T01:29:18;100346.16;;;-4.16;82.35
75681;BME280;64294;49.176;16.626;2023-02-28T01:31:44;100351.63;;;-4.16;83.20
75681;BME280;64294;49.176;16.626;2023-02-28T01:34:09;100347.66;;;-4.11;83.04
75681;BME280;64294;49.176;16.626;2023-02-28T01:36:35;100345.41;;;-4.20;82.62
75681;BME280;64294;49.176;16.626;2023-02-28T01:39:01;100354.03;;;-4.18;83.22
75681;BME280;64294;49.176;16.626;2023-02-28T01:41:30;100341.91;;;-4.20;83.37
75681;BME280;64294;49.176;16.626;2023-02-28T01:47:06;100340.66;;;-4.16;83.36
75681;BME280;64294;49.176;16.626;2023-02-28T01:49:31;100337.09;;;-4.13;83.91
75681;BME280;64294;49.176;16.626;2023-02-28T01:51:57;100341.66;;;-4.03;83.06
75681;BME280;64294;49.176;16.626;2023-02-28T01:54:33;100341.66;;;-4.03;83.35
75681;BME280;64294;49.176;16.626;2023-02-28T01:57:15;100341.19;;;-3.98;82.83
75681;BME280;64294;49.176;16.626;2023-02-28T01:59:50;100335.69;;;-3.98;83.52
75681;BME280;64294;49.176;16.626;2023-02-28T02:02:19;100337.31;;;-4.00;83.17
75681;BME280;64294;49.176;16.626;2023-02-28T02:04:59;100333.56;;;-4.13;83.71
75681;BME280;64294;49.176;16.626;2023-02-28T02:07:32;100333.59;;;-4.17;84.35
75681;BME280;64294;49.176;16.626;2023-02-28T02:15:38;100337.66;;;-4.29;85.61
75681;BME280;64294;49.176;16.626;2023-02-28T02:21:09;100337.25;;;-4.23;85.65
75681;BME280;64294;49.176;16.626;2023-02-28T02:27:24;100332.88;;;-4.21;85.32
75681;BME280;64294;49.176;16.626;2023-02-28T02:35:54;100345.31;;;-4.13;85.21
75681;BME280;64294;49.176;16.626;2023-02-28T02:43:40;100341.25;;;-4.32;85.90
75681;BME280;64294;49.176;16.626;2023-02-28T02:46:16;100340.94;;;-4.37;86.31
75681;BME280;64294;49.176;16.626;2023-02-28T02:48:45;100354.22;;;-4.36;86.56
75681;BME280;64294;49.176;16.626;2023-02-28T02:51:15;100344.09;;;-4.39;87.08
75681;BME280;64294;49.176;16.626;2023-02-28T02:53:49;100340.16;;;-4.38;87.29
75681;BME280;64294;49.176;16.626;2023-02-28T02:56:23;100349.66;;;-4.46;87.72
75681;BME280;64294;49.176;16.626;2023-02-28T02:58:51;100353.97;;;-4.45;87.98
75681;BME280;64294;49.176;16.626;2023-02-28T03:01:21;100357.50;;;-4.44;88.13
75681;BME280;64294;49.176;16.626;2023-02-28T03:04:05;100360.56;;;-4.39;88.41
75681;BME280;64294;49.176;16.626;2023-02-28T03:06:41;100361.31;;;-4.38;87.86
75681;BME280;64294;49.176;16.626;2023-02-28T03:09:06;100358.84;;;-4.29;87.52
75681;BME280;64294;49.176;16.626;2023-02-28T03:11:32;100347.06;;;-4.26;87.37
75681;BME280;64294;49.176;16.626;2023-02-28T03:14:22;100356.41;;;-4.20;87.35
75681;BME280;64294;49.176;16.626;2023-02-28T03:17:03;100353.91;;;-4.07;86.52
75681;BME280;64294;49.176;16.626;2023-02-28T03:31:21;100354.31;;;-3.82;85.92
75681;BME280;64294;49.176;16.626;2023-02-28T03:33:53;100357.47;;;-3.83;85.56
75681;BME280;64294;49.176;16.626;2023-02-28T03:36:51;100348.78;;;-3.78;85.59
75681;BME280;64294;49.176;16.626;2023-02-28T03:39:22;100350.22;;;-3.70;85.82
75681;BME280;64294;49.176;16.626;2023-02-28T03:42:09;100351.72;;;-3.66;85.18
75681;BME280;64294;49.176;16.626;2023-02-28T03:44:45;100359.91;;;-3.62;85.28
75681;BME280;64294;49.176;16.626;2023-02-28T03:47:17;100361.31;;;-3.50;84.99
75681;BME280;64294;49.176;16.626;2023-02-28T03:50:14;100357.69;;;-3.44;85.06
75681;BME280;64294;49.176;16.626;2023-02-28T03:52:49;100371.72;;;-3.38;84.79
75681;BME280;64294;49.176;16.626;2023-02-28T03:55:16;100364.56;;;-3.32;84.71
75681;BME280;64294;49.176;16.626;2023-02-28T04:00:39;100367.47;;;-3.19;83.99
75681;BME280;64294;49.176;16.626;2023-02-28T04:03:08;100365.09;;;-3.17;83.77
75681;BME280;64294;49.176;16.626;2023-02-28T04:05:57;100359.56;;;-3.14;83.66
75681;BME280;64294;49.176;16.626;2023-02-28T04:08:23;100371.31;;;-3.13;83.25
75681;BME280;64294;49.176;16.626;2023-02-28T04:11:04;100366.59;;;-3.13;83.56
75681;BME280;64294;49.176;16.626;2023-02-28T04:13:31;100369.00;;;-3.15;84.24
75681;BME280;64294;49.176;16.626;2023-02-28T04:15:59;100363.00;;;-3.10;83.50
75681;BME280;64294;49.176;16.626;2023-02-28T04:18:25;100362.94;;;-3.06;82.86
75681;BME280;64294;49.176;16.626;2023-02-28T04:20:50;100368.22;;;-3.15;83.87
75681;BME280;64294;49.176;16.626;2023-02-28T04:23:16;100366.59;;;-3.13;83.84
75681;BME280;64294;49.176;16.626;2023-02-28T04:25:41;100366.66;;;-3.16;83.40
75681;BME280;64294;49.176;16.626;2023-02-28T04:28:07;100365.88;;;-3.17;83.71
75681;BME280;64294;49.176;16.626;2023-02-28T04:30:37;100367.13;;;-3.21;83.99
75681;BME280;64294;49.176;16.626;2023-02-28T04:33:02;100367.63;;;-3.26;83.93
75681;BME280;64294;49.176;16.626;2023-02-28T04:35:28;100365.38;;;-3.35;85.14
75681;BME280;64294;49.176;16.626;2023-02-28T04:37:53;100372.41;;;-3.30;84.78
75681;BME280;64294;49.176;16.626;2023-02-28T04:40:18;100373.16;;;-3.30;84.41
75681;BME280;64294;49.176;16.626;2023-02-28T04:42:44;100370.84;;;-3.31;84.66
75681;BME280;64294;49.176;16.626;2023-02-28T04:45:09;100375.31;;;-3.41;85.17
75681;BME280;64294;49.176;16.626;2023-02-28T04:47:36;100373.09;;;-3.50;85.67
75681;BME280;64294;49.176;16.626;2023-02-28T04:50:02;100380.31;;;-3.36;85.83
75681;BME280;64294;49.176;16.626;2023-02-28T04:52:28;100365.56;;;-3.22;84.62
75681;BME280;64294;49.176;16.626;2023-02-28T04:54:53;100379.59;;;-3.13;84.56
75681;BME280;64294;49.176;16.626;2023-02-28T04:57:20;100378.44;;;-3.16;83.71
75681;BME280;64294;49.176;16.626;2023-02-28T04:59:45;100378.84;;;-3.17;83.44
75681;BME280;64294;49.176;16.626;2023-02-28T05:02:11;100381.22;;;-3.19;84.13
75681;BME280;64294;49.176;16.626;2023-02-28T05:04:37;100373.81;;;-3.22;83.83
75681;BME280;64294;49.176;16.626;2023-02-28T05:07:02;100381.00;;;-3.28;84.27
75681;BME280;64294;49.176;16.626;2023-02-28T05:09:31;100377.13;;;-3.31;84.29
75681;BME280;64294;49.176;16.626;2023-02-28T05:12:00;100381.47;;;-3.33;85.15
75681;BME280;64294;49.176;16.626;2023-02-28T05:14:26;100375.72;;;-3.43;85.18
75681;BME280;64294;49.176;16.626;2023-02-28T05:16:51;100375.97;;;-3.33;84.84
75681;BME280;64294;49.176;16.626;2023-02-28T05:19:17;100384.25;;;-3.37;85.02
75681;BME280;64294;49.176;16.626;2023-02-28T05:21:55;100389.25;;;-3.28;84.61
75681;BME280;64294;49.176;16.626;2023-02-28T05:24:22;100396.22;;;-3.24;84.49
75681;BME280;64294;49.176;16.626;2023-02-28T05:26:54;100392.19;;;-3.16;84.09
75681;BME280;64294;49.176;16.626;2023-02-28T05:29:20;100390.94;;;-3.11;83.03
75681;BME280;64294;49.176;16.626;2023-02-28T05:31:46;100390.81;;;-3.27;84.30
75681;BME280;64294;49.176;16.626;2023-02-28T05:34:12;100388.63;;;-3.40;84.59
75681;BME280;64294;49.176;16.626;2023-02-28T05:36:38;100394.25;;;-3.47;85.43
75681;BME280;64294;49.176;16.626;2023-02-28T05:39:07;100400.22;;;-3.52;86.26
75681;BME280;64294;49.176;16.626;2023-02-28T05:41:37;100399.03;;;-3.51;86.27
75681;BME280;64294;49.176;16.626;2023-02-28T05:44:03;100402.13;;;-3.49;85.85
75681;BME280;64294;49.176;16.626;2023-02-28T05:46:28;100404.88;;;-3.49;86.58
75681;BME280;64294;49.176;16.626;2023-02-28T05:48:54;100406.94;;;-3.29;85.24
75681;BME280;64294;49.176;16.626;2023-02-28T05:51:20;100405.69;;;-3.25;85.45
75681;BME280;64294;49.176;16.626;2023-02-28T05:53:46;100411.47;;;-3.19;85.05
75681;BME280;64294;49.176;16.626;2023-02-28T05:56:13;100420.81;;;-3.13;84.26
75681;BME280;64294;49.176;16.626;2023-02-28T05:58:38;100419.84;;;-3.03;84.36
75681;BME280;64294;49.176;16.626;2023-02-28T06:03:49;100417.41;;;-2.74;82.69
75681;BME280;64294;49.176;16.626;2023-02-28T06:06:15;100422.28;;;-2.62;82.50
75681;BME280;64294;49.176;16.626;2023-02-28T06:08:45;100426.06;;;-2.52;81.51
75681;BME280;64294;49.176;16.626;2023-02-28T06:11:11;100424.88;;;-2.31;81.16
75681;BME280;64294;49.176;16.626;2023-02-28T06:13:36;100433.88;;;-2.07;80.60
75681;BME280;64294;49.176;16.626;2023-02-28T06:16:02;100431.88;;;-1.67;77.91
75681;BME280;64294;49.176;16.626;2023-02-28T06:18:27;100433.22;;;-1.39;76.24
75681;BME280;64294;49.176;16.626;2023-02-28T06:20:53;100437.38;;;-1.15;75.79
75681;BME280;64294;49.176;16.626;2023-02-28T06:23:22;100435.25;;;-0.91;74.54
75681;BME280;64294;49.176;16.626;2023-02-28T06:25:48;100440.31;;;-0.73;73.46
75681;BME280;64294;49.176;16.626;2023-02-28T06:28:14;100439.59;;;-0.16;72.08
75681;BME280;64294;49.176;16.626;2023-02-28T06:30:40;100441.72;;;0.73;68.11
75681;BME280;64294;49.176;16.626;2023-02-28T06:33:05;100447.44;;;1.98;64.45
75681;BME280;64294;49.176;16.626;2023-02-28T06:35:31;100453.50;;;3.48;59.34
75681;BME280;64294;49.176;16.626;2023-02-28T06:37:56;100458.50;;;5.02;55.04
75681;BME280;64294;49.176;16.626;2023-02-28T06:40:22;100458.88;;;6.14;49.33
75681;BME280;64294;49.176;16.626;2023-02-28T06:42:48;100472.91;;;6.93;45.35
75681;BME280;64294;49.176;16.626;2023-02-28T06:45:13;100469.19;;;7.93;44.05
75681;BME280;64294;49.176;16.626;2023-02-28T06:47:40;100471.59;;;8.52;40.78
75681;BME280;64294;49.176;16.626;2023-02-28T06:50:10;100469.13;;;9.28;40.23
75681;BME280;64294;49.176;16.626;2023-02-28T06:52:36;100473.66;;;10.22;37.93
75681;BME280;64294;49.176;16.626;2023-02-28T06:55:06;100478.41;;;11.78;36.24
75681;BME280;64294;49.176;16.626;2023-02-28T06:57:34;100480.41;;;12.00;33.43
75681;BME280;64294;49.176;16.626;2023-02-28T07:00:01;100475.41;;;12.64;32.74
75681;BME280;64294;49.176;16.626;2023-02-28T07:02:28;100473.47;;;12.83;31.41
75681;BME280;64294;49.176;16.626;2023-02-28T07:04:54;100472.41;;;13.16;30.23
75681;BME280;64294;49.176;16.626;2023-02-28T07:07:19;100479.56;;;13.23;30.48
75681;BME280;64294;49.176;16.626;2023-02-28T07:09:45;100474.69;;;12.58;31.38
75681;BME280;64294;49.176;16.626;2023-02-28T07:12:13;100472.22;;;11.96;31.90
75681;BME280;64294;49.176;16.626;2023-02-28T07:14:39;100479.16;;;11.95;31.74
75681;BME280;64294;49.176;16.626;2023-02-28T07:17:06;100475.13;;;11.63;32.12
75681;BME280;64294;49.176;16.626;2023-02-28T07:19:40;100476.53;;;11.11;32.89
75681;BME280;64294;49.176;16.626;2023-02-28T07:22:10;100475.50;;;8.91;36.21
75681;BME280;64294;49.176;16.626;2023-02-28T07:24:36;100480.88;;;7.91;38.57
75681;BME280;64294;49.176;16.626;2023-02-28T07:27:01;100485.69;;;7.15;40.68
75681;BME280;64294;49.176;16.626;2023-02-28T07:29:26;100486.63;;;6.32;42.33
75681;BME280;64294;49.176;16.626;2023-02-28T07:31:52;100493.31;;;5.87;43.96
75681;BME280;64294;49.176;16.626;2023-02-28T07:34:19;100479.25;;;5.34;45.52
75681;BME280;64294;49.176;16.626;2023-02-28T07:36:47;100478.47;;;5.09;46.06
75681;BME280;64294;49.176;16.626;2023-02-28T07:39:13;100489.91;;;4.69;47.98
75681;BME280;64294;49.176;16.626;2023-02-28T07:41:38;100486.13;;;4.12;48.95
75681;BME280;64294;49.176;16.626;2023-02-28T07:44:10;100484.41;;;3.87;50.30
75681;BME280;64294;49.176;16.626;2023-02-28T07:46:39;100487.53;;;3.98;50.47
75681;BME280;64294;49.176;16.626;2023-02-28T07:49:05;100485.34;;;3.84;50.36
75681;BME280;64294;49.176;16.626;2023-02-28T07:51:31;100491.06;;;3.99;50.07
75681;BME280;64294;49.176;16.626;2023-02-28T07:53:57;100491.22;;;3.86;49.66
75681;BME280;64294;49.176;16.626;2023-02-28T07:56:22;100487.06;;;3.72;50.71
75681;BME280;64294;49.176;16.626;2023-02-28T07:58:51;100490.44;;;3.67;51.45
75681;BME280;64294;49.176;16.626;2023-02-28T08:01:16;100489.19;;;4.23;49.66
75681;BME280;64294;49.176;16.626;2023-02-28T08:03:43;100483.66;;;4.14;49.03
75681;BME280;64294;49.176;16.626;2023-02-28T08:06:17;100491.38;;;4.01;49.98
75681;BME280;64294;49.176;16.626;2023-02-28T08:08:43;100488.56;;;4.37;49.04
75681;BME280;64294;49.176;16.626;2023-02-28T08:11:10;100485.50;;;3.89;49.86
75681;BME280;64294;49.176;16.626;2023-02-28T08:13:37;100493.50;;;3.69;48.37
75681;BME280;64294;49.176;16.626;2023-02-28T08:16:02;100494.19;;;3.91;49.97
75681;BME280;64294;49.176;16.626;2023-02-28T08:18:28;100486.09;;;3.66;49.98
75681;BME280;64294;49.176;16.626;2023-02-28T08:20:53;100498.16;;;3.63;50.12
75681;BME280;64294;49.176;16.626;2023-02-28T08:23:19;100499.34;;;3.53;49.58
75681;BME280;64294;49.176;16.626;2023-02-28T08:25:44;100501.25;;;3.56;50.27
75681;BME280;64294;49.176;16.626;2023-02-28T08:28:10;100497.91;;;3.21;50.21
75681;BME280;64294;49.176;16.626;2023-02-28T08:30:35;100499.97;;;3.48;50.54
75681;BME280;64294;49.176;16.626;2023-02-28T08:33:01;100502.59;;;3.42;49.98
75681;BME280;64294;49.176;16.626;2023-02-28T08:35:27;100502.63;;;3.60;49.50
75681;BME280;64294;49.176;16.626;2023-02-28T08:37:52;100517.31;;;3.61;49.05
75681;BME280;64294;49.176;16.626;2023-02-28T08:40:18;100507.22;;;3.36;49.46
75681;BME280;64294;49.176;16.626;2023-02-28T08:42:44;100510.03;;;3.54;49.66
75681;BME280;64294;49.176;16.626;2023-02-28T08:45:12;100515.09;;;3.47;48.86
75681;BME280;64294;49.176;16.626;2023-02-28T08:47:37;100515.97;;;3.34;49.17
75681;BME280;64294;49.176;16.626;2023-02-28T08:50:03;100523.84;;;4.04;47.57
75681;BME280;64294;49.176;16.626;2023-02-28T08:52:29;100521.91;;;5.16;45.91
75681;BME280;64294;49.176;16.626;2023-02-28T08:54:55;100506.00;;;6.12;44.12
75681;BME280;64294;49.176;16.626;2023-02-28T08:57:20;100512.97;;;6.17;41.85
75681;BME280;64294;49.176;16.626;2023-02-28T08:59:45;100517.84;;;6.90;40.12
75681;BME280;64294;49.176;16.626;2023-02-28T09:02:13;100514.50;;;7.21;38.88
75681;BME280;64294;49.176;16.626;2023-02-28T09:04:38;100524.97;;;6.91;40.44
75681;BME280;64294;49.176;16.626;2023-02-28T09:07:03;100518.22;;;6.53;40.66
75681;BME280;64294;49.176;16.626;2023-02-28T09:09:30;100518.41;;;7.09;39.56
75681;BME280;64294;49.176;16.626;2023-02-28T09:11:59;100519.09;;;7.39;39.59
75681;BME280;64294;49.176;16.626;2023-02-28T09:14:25;100520.00;;;8.32;38.38
75681;BME280;64294;49.176;16.626;2023-02-28T09:16:50;100515.59;;;8.71;35.96
75681;BME280;64294;49.176;16.626;2023-02-28T09:19:16;100505.91;;;8.41;37.22
75681;BME280;64294;49.176;16.626;2023-02-28T09:21:41;100514.53;;;8.37;37.13
75681;BME280;64294;49.176;16.626;2023-02-28T09:24:08;100511.38;;;8.82;36.54
75681;BME280;64294;49.176;16.626;2023-02-28T09:26:34;100505.78;;;11.89;31.92
75681;BME280;64294;49.176;16.626;2023-02-28T09:28:59;100513.56;;;13.85;29.01
75681;BME280;64294;49.176;16.626;2023-02-28T09:31:28;100513.84;;;14.43;27.62
75681;BME280;64294;49.176;16.626;2023-02-28T09:33:56;100509.25;;;16.42;25.29
75681;BME280;64294;49.176;16.626;2023-02-28T09:36:23;100508.41;;;17.80;22.63
75681;BME280;64294;49.176;16.626;2023-02-28T09:38:49;100510.63;;;15.49;23.38
75681;BME280;64294;49.176;16.626;2023-02-28T09:43:50;100507.63;;;17.02;22.57
75681;BME280;64294;49.176;16.626;2023-02-28T09:46:40;100509.28;;;17.67;22.67
75681;BME280;64294;49.176;16.626;2023-02-28T09:49:14;100525.78;;;17.97;21.75
75681;BME280;64294;49.176;16.626;2023-02-28T09:54:16;100509.25;;;18.39;21.89
75681;BME280;64294;49.176;16.626;2023-02-28T09:56:53;100516.66;;;18.35;20.83
75681;BME280;64294;49.176;16.626;2023-02-28T10:05:12;100507.56;;;17.15;21.45
75681;BME280;64294;49.176;16.626;2023-02-28T10:10:23;100509.34;;;17.25;22.72
75681;BME280;64294;49.176;16.626;2023-02-28T10:12:53;100504.88;;;18.31;21.09
75681;BME280;64294;49.176;16.626;2023-02-28T10:15:22;100505.13;;;18.56;21.34
75681;BME280;64294;49.176;16.626;2023-02-28T10:17:55;100508.50;;;19.05;20.90
75681;BME280;64294;49.176;16.626;2023-02-28T10:20:27;100496.91;;;19.26;20.76
75681;BME280;64294;49.176;16.626;2023-02-28T10:23:09;100503.06;;;20.56;19.43
75681;BME280;64294;49.176;16.626;2023-02-28T10:25:37;100501.84;;;19.26;20.63
75681;BME280;64294;49.176;16.626;2023-02-28T10:28:14;100503.72;;;17.62;22.02
75681;BME280;64294;49.176;16.626;2023-02-28T10:30:49;100493.53;;;16.41;22.34
75681;BME280;64294;49.176;16.626;2023-02-28T10:33:28;100487.00;;;18.82;21.63
75681;BME280;64294;49.176;16.626;2023-02-28T10:35:54;100479.97;;;19.66;20.50
75681;BME280;64294;49.176;16.626;2023-02-28T10:38:43;100477.59;;;20.43;19.79
75681;BME280;64294;49.176;16.626;2023-02-28T10:41:15;100475.69;;;19.98;20.04
75681;BME280;64294;49.176;16.626;2023-02-28T10:43:42;100473.88;;;19.47;19.25
75681;BME280;64294;49.176;16.626;2023-02-28T10:48:45;100470.56;;;17.93;21.08
75681;BME280;64294;49.176;16.626;2023-02-28T10:51:15;100480.38;;;17.27;22.14
75681;BME280;64294;49.176;16.626;2023-02-28T10:53:53;100482.66;;;18.81;20.26
75681;BME280;64294;49.176;16.626;2023-02-28T10:56:22;100470.50;;;17.00;21.76
75681;BME280;64294;49.176;16.626;2023-02-28T11:01:19;100474.31;;;18.24;21.12
75681;BME280;64294;49.176;16.626;2023-02-28T11:03:45;100473.91;;;16.77;23.19
75681;BME280;64294;49.176;16.626;2023-02-28T11:06:23;100474.72;;;17.06;21.58
75681;BME280;64294;49.176;16.626;2023-02-28T11:08:53;100480.84;;;17.39;21.77
75681;BME280;64294;49.176;16.626;2023-02-28T11:11:24;100469.44;;;16.89;23.15
75681;BME280;64294;49.176;16.626;2023-02-28T11:13:53;100475.31;;;17.33;21.27
75681;BME280;64294;49.176;16.626;2023-02-28T11:16:20;100479.88;;;15.26;22.76
75681;BME280;64294;49.176;16.626;2023-02-28T11:18:54;100468.66;;;17.31;22.78
75681;BME280;64294;49.176;16.626;2023-02-28T11:21:48;100470.75;;;17.30;21.78
75681;BME280;64294;49.176;16.626;2023-02-28T11:24:32;100460.28;;;16.62;22.63
75681;BME280;64294;49.176;16.626;2023-02-28T11:26:59;100459.66;;;16.56;23.03
75681;BME280;64294;49.176;16.626;2023-02-28T11:29:27;100464.97;;;16.39;22.01
75681;BME280;64294;49.176;16.626;2023-02-28T11:34:31;100452.88;;;16.25;22.91
75681;BME280;64294;49.176;16.626;2023-02-28T11:37:01;100447.19;;;18.30;20.68
75681;BME280;64294;49.176;16.626;2023-02-28T11:39:26;100445.66;;;16.92;21.00
75681;BME280;64294;49.176;16.626;2023-02-28T11:53:17;100437.41;;;18.03;20.36
75681;BME280;64294;49.176;16.626;2023-02-28T11:55:54;100428.75;;;15.19;22.76
75681;BME280;64294;49.176;16.626;2023-02-28T12:07:03;100429.03;;;18.41;21.53
75681;BME280;64294;49.176;16.626;2023-02-28T12:09:46;100413.44;;;15.67;22.51
75681;BME280;64294;49.176;16.626;2023-02-28T12:12:23;100418.91;;;16.33;22.22
75681;BME280;64294;49.176;16.626;2023-02-28T12:18:13;100415.63;;;18.64;20.33
75681;BME280;64294;49.176;16.626;2023-02-28T12:26:10;100393.28;;;16.04;22.71
75681;BME280;64294;49.176;16.626;2023-02-28T12:28:50;100384.78;;;14.59;23.27
75681;BME280;64294;49.176;16.626;2023-02-28T12:31:28;100400.59;;;16.34;22.77
75681;BME280;64294;49.176;16.626;2023-02-28T12:34:00;100387.78;;;16.20;22.46
75681;BME280;64294;49.176;16.626;2023-02-28T12:36:26;100385.41;;;15.50;24.56
75681;BME280;64294;49.176;16.626;2023-02-28T12:39:01;100385.66;;;14.67;24.15
75681;BME280;64294;49.176;16.626;2023-02-28T12:41:48;100387.06;;;15.32;23.96
75681;BME280;64294;49.176;16.626;2023-02-28T12:44:28;100370.72;;;14.21;25.01
75681;BME280;64294;49.176;16.626;2023-02-28T12:47:00;100379.69;;;12.41;27.19
75681;BME280;64294;49.176;16.626;2023-02-28T12:49:37;100379.31;;;12.26;27.86
75681;BME280;64294;49.176;16.626;2023-02-28T12:52:05;100373.97;;;11.81;27.99
75681;BME280;64294;49.176;16.626;2023-02-28T13:08:20;100362.44;;;8.63;33.81
75681;BME280;64294;49.176;16.626;2023-02-28T13:10:50;100360.78;;;8.82;34.02
75681;BME280;64294;49.176;16.626;2023-02-28T13:13:22;100359.28;;;8.24;35.50
75681;BME280;64294;49.176;16.626;2023-02-28T13:20:58;100356.13;;;9.16;35.79
75681;BME280;64294;49.176;16.626;2023-02-28T13:23:58;100359.41;;;8.35;35.93
75681;BME280;64294;49.176;16.626;2023-02-28T13:29:01;100355.78;;;8.60;35.63
75681;BME280;64294;49.176;16.626;2023-02-28T13:31:27;100354.97;;;8.23;35.59
75681;BME280;64294;49.176;16.626;2023-02-28T13:36:26;100350.56;;;8.42;36.07
75681;BME280;64294;49.176;16.626;2023-02-28T13:42:33;100337.94;;;7.28;37.17
75681;BME280;64294;49.176;16.626;2023-02-28T14:01:38;100345.22;;;8.44;36.04
75681;BME280;64294;49.176;16.626;2023-02-28T14:06:53;100344.03;;;7.26;38.34
75681;BME280;64294;49.176;16.626;2023-02-28T14:09:31;100343.53;;;7.28;38.28
75681;BME280;64294;49.176;16.626;2023-02-28T14:15:03;100337.88;;;7.22;38.24
75681;BME280;64294;49.176;16.626;2023-02-28T14:17:31;100337.19;;;7.07;39.38
75681;BME280;64294;49.176;16.626;2023-02-28T14:19:58;100329.22;;;7.67;39.01
75681;BME280;64294;49.176;16.626;2023-02-28T14:31:10;100320.16;;;6.20;40.20
75681;BME280;64294;49.176;16.626;2023-02-28T14:36:43;100313.03;;;5.60;42.41
75681;BME280;64294;49.176;16.626;2023-02-28T14:39:15;100312.72;;;5.58;41.88
75681;BME280;64294;49.176;16.626;2023-02-28T14:41:46;100311.84;;;5.52;41.76
75681;BME280;64294;49.176;16.626;2023-02-28T14:44:20;100310.53;;;5.77;42.15
75681;BME280;64294;49.176;16.626;2023-02-28T14:46:48;100317.25;;;5.70;40.92
75681;BME280;64294;49.176;16.626;2023-02-28T14:49:37;100303.13;;;5.59;41.90
75681;BME280;64294;49.176;16.626;2023-02-28T14:54:37;100307.47;;;5.90;41.93
75681;BME280;64294;49.176;16.626;2023-02-28T14:57:03;100313.41;;;5.83;41.45
75681;BME280;64294;49.176;16.626;2023-02-28T14:59:34;100314.19;;;5.68;42.12
75681;BME280;64294;49.176;16.626;2023-02-28T15:02:21;100309.41;;;5.30;42.53
75681;BME280;64294;49.176;16.626;2023-02-28T15:04:58;100314.38;;;5.80;43.84
75681;BME280;64294;49.176;16.626;2023-02-28T15:07:24;100316.00;;;5.71;42.26
75681;BME280;64294;49.176;16.626;2023-02-28T15:10:23;100313.50;;;5.73;42.91
75681;BME280;64294;49.176;16.626;2023-02-28T15:13:16;100311.31;;;5.24;43.81
75681;BME280;64294;49.176;16.626;2023-02-28T15:15:56;100306.06;;;5.02;43.75
75681;BME280;64294;49.176;16.626;2023-02-28T15:21:11;100313.03;;;4.98;44.24
75681;BME280;64294;49.176;16.626;2023-02-28T15:23:38;100313.22;;;4.94;44.56
75681;BME280;64294;49.176;16.626;2023-02-28T15:26:15;100301.47;;;5.14;45.31
75681;BME280;64294;49.176;16.626;2023-02-28T15:28:44;100312.28;;;4.97;43.84
75681;BME280;64294;49.176;16.626;2023-02-28T15:31:20;100293.72;;;4.94;44.11
75681;BME280;64294;49.176;16.626;2023-02-28T15:34:20;100303.91;;;4.49;44.44
75681;BME280;64294;49.176;16.626;2023-02-28T15:36:47;100306.13;;;4.69;45.54